Terminal Aerodrome Forecast
Issued by NWS Tuscon, AZ

Home | Current Version | Previous Version | Text Only | Print | Product List | Glossary On
Versions: 1 2 3 4 5 6 7 8 9 10 11 12 13 14 15 16 17 18 19 20 21
000
FTUS45 KTWC 200500
TAFDUG
TAF
KDUG 200520Z 2006/2106 14007KT P6SM SCT050 BKN090
     FM201500 20008KT P6SM SCT050
     FM202000 28009KT P6SM VCSH SCT060 BKN100
     FM210300 02005KT P6SM SCT060 BKN120=

USA.gov is the U.S. government's official web portal to all federal, state and local government web resources and services.